sensor_id;sensor_type;location;lat;lon;timestamp;P1;durP1;ratioP1;P2;durP2;ratioP2
23175;SDS011;19910;42.652;23.332;2023-07-31T00:02:20;3.40;;;2.33;;
23175;SDS011;19910;42.652;23.332;2023-07-31T00:04:47;2.95;;;2.25;;
23175;SDS011;19910;42.652;23.332;2023-07-31T00:07:15;4.25;;;2.40;;
23175;SDS011;19910;42.652;23.332;2023-07-31T00:09:43;4.18;;;2.30;;
23175;SDS011;19910;42.652;23.332;2023-07-31T00:12:09;4.10;;;2.75;;
23175;SDS011;19910;42.652;23.332;2023-07-31T00:14:36;3.80;;;2.20;;
23175;SDS011;19910;42.652;23.332;2023-07-31T00:17:03;3.95;;;2.60;;
23175;SDS011;19910;42.652;23.332;2023-07-31T00:19:30;3.72;;;1.58;;
23175;SDS011;19910;42.652;23.332;2023-07-31T00:21:57;3.22;;;2.25;;
23175;SDS011;19910;42.652;23.332;2023-07-31T00:24:24;2.70;;;2.08;;
23175;SDS011;19910;42.652;23.332;2023-07-31T00:26:52;2.38;;;2.05;;
23175;SDS011;19910;42.652;23.332;2023-07-31T00:29:19;5.32;;;2.75;;
23175;SDS011;19910;42.652;23.332;2023-07-31T00:31:46;5.32;;;3.15;;
23175;SDS011;19910;42.652;23.332;2023-07-31T00:34:12;3.95;;;2.60;;
23175;SDS011;19910;42.652;23.332;2023-07-31T00:36:39;4.72;;;3.28;;
23175;SDS011;19910;42.652;23.332;2023-07-31T00:39:06;3.33;;;3.00;;
23175;SDS011;19910;42.652;23.332;2023-07-31T00:41:33;4.47;;;2.97;;
23175;SDS011;19910;42.652;23.332;2023-07-31T00:44:01;3.80;;;3.03;;
23175;SDS011;19910;42.652;23.332;2023-07-31T00:46:27;2.90;;;2.38;;
23175;SDS011;19910;42.652;23.332;2023-07-31T00:48:54;6.50;;;4.28;;
23175;SDS011;19910;42.652;23.332;2023-07-31T00:51:21;4.30;;;2.88;;
23175;SDS011;19910;42.652;23.332;2023-07-31T00:53:48;6.95;;;4.13;;
23175;SDS011;19910;42.652;23.332;2023-07-31T00:56:15;5.43;;;4.80;;
23175;SDS011;19910;42.652;23.332;2023-07-31T00:58:42;5.85;;;5.20;;
23175;SDS011;19910;42.652;23.332;2023-07-31T01:01:10;6.95;;;5.93;;
23175;SDS011;19910;42.652;23.332;2023-07-31T01:03:37;5.15;;;4.20;;
23175;SDS011;19910;42.652;23.332;2023-07-31T01:06:09;5.88;;;4.10;;
23175;SDS011;19910;42.652;23.332;2023-07-31T01:08:42;7.10;;;3.25;;
23175;SDS011;19910;42.652;23.332;2023-07-31T01:11:21;6.22;;;4.60;;
23175;SDS011;19910;42.652;23.332;2023-07-31T01:13:53;7.97;;;5.47;;
23175;SDS011;19910;42.652;23.332;2023-07-31T01:16:22;7.03;;;4.75;;
23175;SDS011;19910;42.652;23.332;2023-07-31T01:18:49;9.85;;;5.82;;
23175;SDS011;19910;42.652;23.332;2023-07-31T01:21:28;9.07;;;5.75;;
23175;SDS011;19910;42.652;23.332;2023-07-31T01:24:10;11.75;;;8.18;;
23175;SDS011;19910;42.652;23.332;2023-07-31T01:26:49;10.13;;;8.20;;
23175;SDS011;19910;42.652;23.332;2023-07-31T01:29:23;10.63;;;7.07;;
23175;SDS011;19910;42.652;23.332;2023-07-31T01:31:55;12.55;;;8.75;;
23175;SDS011;19910;42.652;23.332;2023-07-31T01:34:27;14.35;;;8.98;;
23175;SDS011;19910;42.652;23.332;2023-07-31T01:36:55;15.27;;;10.95;;
23175;SDS011;19910;42.652;23.332;2023-07-31T01:39:22;15.75;;;12.07;;
23175;SDS011;19910;42.652;23.332;2023-07-31T01:41:50;17.63;;;10.90;;
23175;SDS011;19910;42.652;23.332;2023-07-31T01:44:17;13.07;;;8.73;;
23175;SDS011;19910;42.652;23.332;2023-07-31T01:46:44;18.88;;;11.32;;
23175;SDS011;19910;42.652;23.332;2023-07-31T01:49:10;18.70;;;11.82;;
23175;SDS011;19910;42.652;23.332;2023-07-31T01:51:37;20.48;;;13.05;;
23175;SDS011;19910;42.652;23.332;2023-07-31T01:54:04;19.15;;;12.40;;
23175;SDS011;19910;42.652;23.332;2023-07-31T01:56:31;23.58;;;13.35;;
23175;SDS011;19910;42.652;23.332;2023-07-31T01:58:59;15.25;;;10.90;;
23175;SDS011;19910;42.652;23.332;2023-07-31T02:01:26;19.90;;;13.55;;
23175;SDS011;19910;42.652;23.332;2023-07-31T02:03:53;22.38;;;12.82;;
23175;SDS011;19910;42.652;23.332;2023-07-31T02:06:19;20.40;;;14.40;;
23175;SDS011;19910;42.652;23.332;2023-07-31T02:08:47;20.10;;;13.20;;
23175;SDS011;19910;42.652;23.332;2023-07-31T02:11:14;20.77;;;13.02;;
23175;SDS011;19910;42.652;23.332;2023-07-31T02:13:41;21.48;;;13.60;;
23175;SDS011;19910;42.652;23.332;2023-07-31T02:16:09;22.00;;;13.95;;
23175;SDS011;19910;42.652;23.332;2023-07-31T02:18:36;20.08;;;11.85;;
23175;SDS011;19910;42.652;23.332;2023-07-31T02:21:03;21.00;;;13.50;;
23175;SDS011;19910;42.652;23.332;2023-07-31T02:23:29;21.02;;;14.35;;
23175;SDS011;19910;42.652;23.332;2023-07-31T02:25:56;23.55;;;14.13;;
23175;SDS011;19910;42.652;23.332;2023-07-31T02:28:23;21.35;;;13.93;;
23175;SDS011;19910;42.652;23.332;2023-07-31T02:30:50;19.70;;;13.60;;
23175;SDS011;19910;42.652;23.332;2023-07-31T02:33:18;18.02;;;12.27;;
23175;SDS011;19910;42.652;23.332;2023-07-31T02:35:47;19.90;;;11.85;;
23175;SDS011;19910;42.652;23.332;2023-07-31T02:38:13;11.48;;;7.05;;
23175;SDS011;19910;42.652;23.332;2023-07-31T02:40:40;23.73;;;12.98;;
23175;SDS011;19910;42.652;23.332;2023-07-31T02:43:07;21.60;;;15.15;;
23175;SDS011;19910;42.652;23.332;2023-07-31T02:45:34;15.38;;;9.20;;
23175;SDS011;19910;42.652;23.332;2023-07-31T02:48:00;19.00;;;11.80;;
23175;SDS011;19910;42.652;23.332;2023-07-31T02:50:29;17.92;;;10.05;;
23175;SDS011;19910;42.652;23.332;2023-07-31T02:52:57;16.95;;;13.07;;
23175;SDS011;19910;42.652;23.332;2023-07-31T02:55:23;22.75;;;14.50;;
23175;SDS011;19910;42.652;23.332;2023-07-31T02:57:50;21.70;;;13.70;;
23175;SDS011;19910;42.652;23.332;2023-07-31T03:00:17;13.70;;;10.10;;
23175;SDS011;19910;42.652;23.332;2023-07-31T03:02:45;17.58;;;10.95;;
23175;SDS011;19910;42.652;23.332;2023-07-31T03:05:11;18.95;;;12.30;;
23175;SDS011;19910;42.652;23.332;2023-07-31T03:07:40;19.70;;;12.43;;
23175;SDS011;19910;42.652;23.332;2023-07-31T03:10:07;22.17;;;12.95;;
23175;SDS011;19910;42.652;23.332;2023-07-31T03:12:34;16.02;;;10.25;;
23175;SDS011;19910;42.652;23.332;2023-07-31T03:15:01;14.52;;;9.52;;
23175;SDS011;19910;42.652;23.332;2023-07-31T03:17:28;20.98;;;13.95;;
23175;SDS011;19910;42.652;23.332;2023-07-31T03:19:54;19.30;;;12.23;;
23175;SDS011;19910;42.652;23.332;2023-07-31T03:22:21;21.63;;;14.68;;
23175;SDS011;19910;42.652;23.332;2023-07-31T03:24:49;20.95;;;12.52;;
23175;SDS011;19910;42.652;23.332;2023-07-31T03:27:16;16.23;;;9.95;;
23175;SDS011;19910;42.652;23.332;2023-07-31T03:29:43;21.70;;;13.18;;
23175;SDS011;19910;42.652;23.332;2023-07-31T03:32:09;19.85;;;12.27;;
23175;SDS011;19910;42.652;23.332;2023-07-31T03:34:36;14.63;;;10.40;;
23175;SDS011;19910;42.652;23.332;2023-07-31T03:37:04;9.82;;;7.07;;
23175;SDS011;19910;42.652;23.332;2023-07-31T03:39:31;19.77;;;12.77;;
23175;SDS011;19910;42.652;23.332;2023-07-31T03:41:59;18.25;;;11.75;;
23175;SDS011;19910;42.652;23.332;2023-07-31T03:44:26;22.08;;;13.32;;
23175;SDS011;19910;42.652;23.332;2023-07-31T03:46:52;18.58;;;11.52;;
23175;SDS011;19910;42.652;23.332;2023-07-31T03:49:19;20.77;;;13.23;;
23175;SDS011;19910;42.652;23.332;2023-07-31T03:51:46;19.00;;;11.65;;
23175;SDS011;19910;42.652;23.332;2023-07-31T03:54:13;18.02;;;11.90;;
23175;SDS011;19910;42.652;23.332;2023-07-31T03:56:40;20.40;;;12.55;;
23175;SDS011;19910;42.652;23.332;2023-07-31T03:59:08;23.50;;;13.13;;
23175;SDS011;19910;42.652;23.332;2023-07-31T04:01:35;22.15;;;13.63;;
23175;SDS011;19910;42.652;23.332;2023-07-31T04:04:01;22.13;;;13.40;;
23175;SDS011;19910;42.652;23.332;2023-07-31T04:06:28;23.77;;;14.05;;
23175;SDS011;19910;42.652;23.332;2023-07-31T04:08:55;25.48;;;14.43;;
23175;SDS011;19910;42.652;23.332;2023-07-31T04:11:22;22.48;;;12.48;;
23175;SDS011;19910;42.652;23.332;2023-07-31T04:13:49;22.98;;;13.25;;
23175;SDS011;19910;42.652;23.332;2023-07-31T04:16:17;17.15;;;10.88;;
23175;SDS011;19910;42.652;23.332;2023-07-31T04:18:44;22.45;;;12.35;;
23175;SDS011;19910;42.652;23.332;2023-07-31T04:21:10;25.00;;;15.02;;
23175;SDS011;19910;42.652;23.332;2023-07-31T04:23:37;26.08;;;15.65;;
23175;SDS011;19910;42.652;23.332;2023-07-31T04:26:04;23.20;;;13.77;;
23175;SDS011;19910;42.652;23.332;2023-07-31T04:28:31;24.55;;;13.52;;
23175;SDS011;19910;42.652;23.332;2023-07-31T04:30:58;21.90;;;13.65;;
23175;SDS011;19910;42.652;23.332;2023-07-31T04:33:26;22.17;;;13.00;;
23175;SDS011;19910;42.652;23.332;2023-07-31T04:35:53;22.75;;;12.40;;
23175;SDS011;19910;42.652;23.332;2023-07-31T04:38:20;19.15;;;11.93;;
23175;SDS011;19910;42.652;23.332;2023-07-31T04:40:47;20.20;;;12.68;;
23175;SDS011;19910;42.652;23.332;2023-07-31T04:43:14;20.15;;;11.27;;
23175;SDS011;19910;42.652;23.332;2023-07-31T04:45:42;20.63;;;12.45;;
23175;SDS011;19910;42.652;23.332;2023-07-31T04:48:11;15.05;;;10.35;;
23175;SDS011;19910;42.652;23.332;2023-07-31T04:50:39;21.85;;;12.98;;
23175;SDS011;19910;42.652;23.332;2023-07-31T04:53:06;21.13;;;10.52;;
23175;SDS011;19910;42.652;23.332;2023-07-31T04:55:32;24.75;;;13.32;;
23175;SDS011;19910;42.652;23.332;2023-07-31T04:57:59;20.23;;;12.68;;
23175;SDS011;19910;42.652;23.332;2023-07-31T05:00:25;20.55;;;11.85;;
23175;SDS011;19910;42.652;23.332;2023-07-31T05:02:52;17.10;;;12.02;;
23175;SDS011;19910;42.652;23.332;2023-07-31T05:05:18;19.20;;;11.75;;
23175;SDS011;19910;42.652;23.332;2023-07-31T05:07:47;17.80;;;10.38;;
23175;SDS011;19910;42.652;23.332;2023-07-31T05:10:14;13.70;;;8.77;;
23175;SDS011;19910;42.652;23.332;2023-07-31T05:12:40;18.05;;;11.15;;
23175;SDS011;19910;42.652;23.332;2023-07-31T05:15:07;18.65;;;14.40;;
23175;SDS011;19910;42.652;23.332;2023-07-31T05:17:35;18.85;;;15.02;;
23175;SDS011;19910;42.652;23.332;2023-07-31T05:20:02;15.10;;;10.05;;
23175;SDS011;19910;42.652;23.332;2023-07-31T05:22:29;15.27;;;10.98;;
23175;SDS011;19910;42.652;23.332;2023-07-31T05:24:57;17.63;;;13.60;;
23175;SDS011;19910;42.652;23.332;2023-07-31T05:27:24;13.52;;;8.32;;
23175;SDS011;19910;42.652;23.332;2023-07-31T05:29:50;13.05;;;8.55;;
23175;SDS011;19910;42.652;23.332;2023-07-31T05:32:17;12.95;;;9.30;;
23175;SDS011;19910;42.652;23.332;2023-07-31T05:34:44;11.70;;;7.88;;
23175;SDS011;19910;42.652;23.332;2023-07-31T05:37:11;12.85;;;8.73;;
23175;SDS011;19910;42.652;23.332;2023-07-31T05:39:37;12.85;;;7.88;;
23175;SDS011;19910;42.652;23.332;2023-07-31T05:42:06;11.75;;;7.25;;
23175;SDS011;19910;42.652;23.332;2023-07-31T05:44:33;11.95;;;8.77;;
23175;SDS011;19910;42.652;23.332;2023-07-31T05:47:00;9.75;;;7.18;;
23175;SDS011;19910;42.652;23.332;2023-07-31T05:49:27;9.55;;;8.45;;
23175;SDS011;19910;42.652;23.332;2023-07-31T05:51:53;13.05;;;9.13;;
23175;SDS011;19910;42.652;23.332;2023-07-31T05:54:20;8.23;;;7.28;;
23175;SDS011;19910;42.652;23.332;2023-07-31T05:56:47;7.30;;;5.57;;
23175;SDS011;19910;42.652;23.332;2023-07-31T05:59:15;7.15;;;4.80;;
23175;SDS011;19910;42.652;23.332;2023-07-31T06:01:42;8.77;;;6.30;;
23175;SDS011;19910;42.652;23.332;2023-07-31T06:04:09;7.63;;;6.35;;
23175;SDS011;19910;42.652;23.332;2023-07-31T06:06:36;6.00;;;4.55;;
23175;SDS011;19910;42.652;23.332;2023-07-31T06:09:02;5.78;;;4.22;;
23175;SDS011;19910;42.652;23.332;2023-07-31T06:11:29;6.18;;;4.07;;
23175;SDS011;19910;42.652;23.332;2023-07-31T06:13:56;6.68;;;3.90;;
23175;SDS011;19910;42.652;23.332;2023-07-31T06:16:24;5.30;;;3.58;;
23175;SDS011;19910;42.652;23.332;2023-07-31T06:18:52;4.32;;;3.38;;
23175;SDS011;19910;42.652;23.332;2023-07-31T06:21:19;4.40;;;3.00;;
23175;SDS011;19910;42.652;23.332;2023-07-31T06:23:45;4.70;;;4.30;;
23175;SDS011;19910;42.652;23.332;2023-07-31T06:26:12;6.85;;;4.75;;
23175;SDS011;19910;42.652;23.332;2023-07-31T06:28:39;5.47;;;3.90;;
23175;SDS011;19910;42.652;23.332;2023-07-31T06:31:06;3.85;;;3.40;;
23175;SDS011;19910;42.652;23.332;2023-07-31T06:33:34;4.78;;;3.90;;
23175;SDS011;19910;42.652;23.332;2023-07-31T06:36:01;4.47;;;2.78;;
23175;SDS011;19910;42.652;23.332;2023-07-31T06:38:28;7.30;;;3.17;;
23175;SDS011;19910;42.652;23.332;2023-07-31T06:40:54;5.60;;;3.70;;
23175;SDS011;19910;42.652;23.332;2023-07-31T06:43:21;4.70;;;3.35;;
23175;SDS011;19910;42.652;23.332;2023-07-31T06:45:48;3.80;;;3.40;;
23175;SDS011;19910;42.652;23.332;2023-07-31T06:48:16;4.93;;;3.70;;
23175;SDS011;19910;42.652;23.332;2023-07-31T06:50:44;6.05;;;3.47;;
23175;SDS011;19910;42.652;23.332;2023-07-31T06:53:11;8.40;;;3.83;;
23175;SDS011;19910;42.652;23.332;2023-07-31T06:55:38;4.47;;;3.35;;
23175;SDS011;19910;42.652;23.332;2023-07-31T06:58:05;4.72;;;3.70;;
23175;SDS011;19910;42.652;23.332;2023-07-31T07:00:31;4.78;;;3.70;;
23175;SDS011;19910;42.652;23.332;2023-07-31T07:02:58;3.70;;;3.20;;
23175;SDS011;19910;42.652;23.332;2023-07-31T07:05:25;3.90;;;2.65;;
23175;SDS011;19910;42.652;23.332;2023-07-31T07:07:54;3.92;;;3.38;;
23175;SDS011;19910;42.652;23.332;2023-07-31T07:10:20;3.65;;;2.88;;
23175;SDS011;19910;42.652;23.332;2023-07-31T07:12:47;3.25;;;2.80;;
23175;SDS011;19910;42.652;23.332;2023-07-31T07:15:15;4.95;;;3.42;;
23175;SDS011;19910;42.652;23.332;2023-07-31T07:17:41;4.18;;;2.88;;
23175;SDS011;19910;42.652;23.332;2023-07-31T07:20:08;3.28;;;2.53;;
23175;SDS011;19910;42.652;23.332;2023-07-31T07:22:35;3.63;;;2.88;;
23175;SDS011;19910;42.652;23.332;2023-07-31T07:25:04;4.75;;;3.03;;
23175;SDS011;19910;42.652;23.332;2023-07-31T07:27:32;2.33;;;1.92;;
23175;SDS011;19910;42.652;23.332;2023-07-31T07:29:59;3.45;;;1.95;;
23175;SDS011;19910;42.652;23.332;2023-07-31T07:32:26;2.45;;;2.10;;
23175;SDS011;19910;42.652;23.332;2023-07-31T07:34:53;2.10;;;1.45;;
23175;SDS011;19910;42.652;23.332;2023-07-31T07:37:19;2.00;;;1.80;;
23175;SDS011;19910;42.652;23.332;2023-07-31T07:39:46;4.90;;;2.22;;
23175;SDS011;19910;42.652;23.332;2023-07-31T07:42:14;5.88;;;2.03;;
23175;SDS011;19910;42.652;23.332;2023-07-31T07:44:41;3.95;;;2.40;;
23175;SDS011;19910;42.652;23.332;2023-07-31T07:47:08;3.22;;;2.60;;
23175;SDS011;19910;42.652;23.332;2023-07-31T07:49:35;3.42;;;2.92;;
23175;SDS011;19910;42.652;23.332;2023-07-31T07:52:02;3.13;;;2.50;;
23175;SDS011;19910;42.652;23.332;2023-07-31T07:54:29;2.78;;;2.20;;
23175;SDS011;19910;42.652;23.332;2023-07-31T07:56:56;2.78;;;2.22;;
23175;SDS011;19910;42.652;23.332;2023-07-31T07:59:25;2.25;;;2.05;;
23175;SDS011;19910;42.652;23.332;2023-07-31T08:01:52;2.42;;;2.05;;
23175;SDS011;19910;42.652;23.332;2023-07-31T08:04:18;2.38;;;2.08;;
23175;SDS011;19910;42.652;23.332;2023-07-31T08:06:45;2.28;;;1.65;;
23175;SDS011;19910;42.652;23.332;2023-07-31T08:09:12;2.47;;;1.48;;
23175;SDS011;19910;42.652;23.332;2023-07-31T08:11:39;2.80;;;1.90;;
23175;SDS011;19910;42.652;23.332;2023-07-31T08:14:05;5.32;;;2.53;;
23175;SDS011;19910;42.652;23.332;2023-07-31T08:16:33;3.28;;;2.40;;
23175;SDS011;19910;42.652;23.332;2023-07-31T08:19:00;3.42;;;2.25;;
23175;SDS011;19910;42.652;23.332;2023-07-31T08:21:27;2.72;;;2.38;;
23175;SDS011;19910;42.652;23.332;2023-07-31T08:23:54;2.92;;;2.47;;
23175;SDS011;19910;42.652;23.332;2023-07-31T08:26:21;2.95;;;2.38;;
23175;SDS011;19910;42.652;23.332;2023-07-31T08:28:47;2.70;;;2.47;;
23175;SDS011;19910;42.652;23.332;2023-07-31T08:31:14;2.45;;;2.08;;
23175;SDS011;19910;42.652;23.332;2023-07-31T08:33:42;8.07;;;2.30;;
23175;SDS011;19910;42.652;23.332;2023-07-31T08:36:09;2.58;;;1.95;;
23175;SDS011;19910;42.652;23.332;2023-07-31T08:38:36;4.60;;;2.15;;
23175;SDS011;19910;42.652;23.332;2023-07-31T08:41:03;3.45;;;2.80;;
23175;SDS011;19910;42.652;23.332;2023-07-31T08:43:29;2.97;;;2.33;;
23175;SDS011;19910;42.652;23.332;2023-07-31T08:45:57;3.17;;;2.78;;
23175;SDS011;19910;42.652;23.332;2023-07-31T08:48:24;2.78;;;2.30;;
23175;SDS011;19910;42.652;23.332;2023-07-31T08:50:53;2.65;;;2.45;;
23175;SDS011;19910;42.652;23.332;2023-07-31T08:53:20;3.38;;;2.08;;
23175;SDS011;19910;42.652;23.332;2023-07-31T08:55:47;3.65;;;1.95;;
23175;SDS011;19910;42.652;23.332;2023-07-31T08:58:15;4.18;;;2.72;;
23175;SDS011;19910;42.652;23.332;2023-07-31T09:00:44;3.22;;;2.65;;
23175;SDS011;19910;42.652;23.332;2023-07-31T09:03:13;2.88;;;2.50;;
23175;SDS011;19910;42.652;23.332;2023-07-31T09:05:42;3.15;;;2.65;;
23175;SDS011;19910;42.652;23.332;2023-07-31T09:08:12;2.63;;;2.15;;
23175;SDS011;19910;42.652;23.332;2023-07-31T09:10:42;2.63;;;2.28;;
23175;SDS011;19910;42.652;23.332;2023-07-31T09:13:11;3.70;;;2.72;;
23175;SDS011;19910;42.652;23.332;2023-07-31T09:15:38;4.32;;;2.50;;
23175;SDS011;19910;42.652;23.332;2023-07-31T09:18:06;2.63;;;2.10;;
23175;SDS011;19910;42.652;23.332;2023-07-31T09:20:34;4.68;;;2.25;;
23175;SDS011;19910;42.652;23.332;2023-07-31T09:23:06;3.47;;;2.22;;
23175;SDS011;19910;42.652;23.332;2023-07-31T09:25:35;4.45;;;2.20;;
23175;SDS011;19910;42.652;23.332;2023-07-31T09:28:04;2.60;;;2.22;;
23175;SDS011;19910;42.652;23.332;2023-07-31T09:30:32;2.95;;;2.40;;
23175;SDS011;19910;42.652;23.332;2023-07-31T09:33:11;3.67;;;2.55;;
23175;SDS011;19910;42.652;23.332;2023-07-31T09:35:38;3.30;;;2.33;;
23175;SDS011;19910;42.652;23.332;2023-07-31T09:38:07;2.92;;;2.35;;
23175;SDS011;19910;42.652;23.332;2023-07-31T09:40:37;2.92;;;2.40;;
23175;SDS011;19910;42.652;23.332;2023-07-31T09:43:05;2.63;;;2.35;;
23175;SDS011;19910;42.652;23.332;2023-07-31T09:45:34;2.85;;;2.55;;
23175;SDS011;19910;42.652;23.332;2023-07-31T09:48:02;2.75;;;2.22;;
23175;SDS011;19910;42.652;23.332;2023-07-31T09:50:29;3.13;;;2.70;;
23175;SDS011;19910;42.652;23.332;2023-07-31T09:52:56;4.80;;;2.88;;
23175;SDS011;19910;42.652;23.332;2023-07-31T09:55:23;3.00;;;2.70;;
23175;SDS011;19910;42.652;23.332;2023-07-31T09:57:52;3.65;;;2.80;;
23175;SDS011;19910;42.652;23.332;2023-07-31T10:00:21;4.15;;;2.40;;
23175;SDS011;19910;42.652;23.332;2023-07-31T10:02:50;5.25;;;2.53;;
23175;SDS011;19910;42.652;23.332;2023-07-31T10:05:17;5.35;;;2.33;;
23175;SDS011;19910;42.652;23.332;2023-07-31T10:07:49;5.07;;;2.38;;
23175;SDS011;19910;42.652;23.332;2023-07-31T10:10:20;4.00;;;2.28;;
23175;SDS011;19910;42.652;23.332;2023-07-31T10:12:48;2.65;;;2.30;;
23175;SDS011;19910;42.652;23.332;2023-07-31T10:15:16;3.72;;;2.20;;
23175;SDS011;19910;42.652;23.332;2023-07-31T10:17:44;3.80;;;2.22;;
23175;SDS011;19910;42.652;23.332;2023-07-31T10:20:12;5.47;;;2.30;;
23175;SDS011;19910;42.652;23.332;2023-07-31T10:22:41;2.55;;;1.75;;
23175;SDS011;19910;42.652;23.332;2023-07-31T10:25:08;1.90;;;1.70;;
23175;SDS011;19910;42.652;23.332;2023-07-31T10:27:36;6.95;;;2.08;;
23175;SDS011;19910;42.652;23.332;2023-07-31T10:30:05;2.30;;;2.10;;
23175;SDS011;19910;42.652;23.332;2023-07-31T10:32:36;3.47;;;2.20;;
23175;SDS011;19910;42.652;23.332;2023-07-31T10:35:07;2.72;;;1.67;;
23175;SDS011;19910;42.652;23.332;2023-07-31T10:37:38;2.83;;;2.00;;
23175;SDS011;19910;42.652;23.332;2023-07-31T10:40:09;2.55;;;1.92;;
23175;SDS011;19910;42.652;23.332;2023-07-31T10:42:38;3.95;;;2.20;;
23175;SDS011;19910;42.652;23.332;2023-07-31T10:45:12;2.33;;;1.90;;
23175;SDS011;19910;42.652;23.332;2023-07-31T10:47:43;2.55;;;2.20;;
23175;SDS011;19910;42.652;23.332;2023-07-31T10:50:17;2.30;;;1.73;;
23175;SDS011;19910;42.652;23.332;2023-07-31T10:52:48;2.45;;;2.15;;
23175;SDS011;19910;42.652;23.332;2023-07-31T10:55:17;4.65;;;2.00;;
23175;SDS011;19910;42.652;23.332;2023-07-31T10:57:51;4.97;;;2.10;;
23175;SDS011;19910;42.652;23.332;2023-07-31T11:00:19;3.55;;;2.20;;
23175;SDS011;19910;42.652;23.332;2023-07-31T11:02:58;2.75;;;1.73;;
23175;SDS011;19910;42.652;23.332;2023-07-31T11:05:43;1.70;;;1.60;;
23175;SDS011;19910;42.652;23.332;2023-07-31T11:08:14;2.25;;;1.90;;
23175;SDS011;19910;42.652;23.332;2023-07-31T11:10:43;5.15;;;2.08;;
23175;SDS011;19910;42.652;23.332;2023-07-31T11:13:11;1.92;;;1.50;;
23175;SDS011;19910;42.652;23.332;2023-07-31T11:15:38;2.10;;;1.77;;
23175;SDS011;19910;42.652;23.332;2023-07-31T11:18:06;2.22;;;1.77;;
23175;SDS011;19910;42.652;23.332;2023-07-31T11:20:36;2.63;;;1.70;;
23175;SDS011;19910;42.652;23.332;2023-07-31T11:23:05;2.63;;;1.90;;
23175;SDS011;19910;42.652;23.332;2023-07-31T11:25:33;1.90;;;1.58;;
23175;SDS011;19910;42.652;23.332;2023-07-31T11:28:04;2.10;;;1.52;;
23175;SDS011;19910;42.652;23.332;2023-07-31T11:30:31;4.07;;;1.70;;
23175;SDS011;19910;42.652;23.332;2023-07-31T11:32:59;3.10;;;1.70;;
23175;SDS011;19910;42.652;23.332;2023-07-31T11:35:29;2.10;;;1.60;;
23175;SDS011;19910;42.652;23.332;2023-07-31T11:37:57;4.72;;;1.80;;
23175;SDS011;19910;42.652;23.332;2023-07-31T11:40:24;2.55;;;2.10;;
23175;SDS011;19910;42.652;23.332;2023-07-31T11:42:54;3.28;;;1.80;;
23175;SDS011;19910;42.652;23.332;2023-07-31T11:45:24;2.70;;;2.20;;
23175;SDS011;19910;42.652;23.332;2023-07-31T11:47:51;1.75;;;1.65;;
23175;SDS011;19910;42.652;23.332;2023-07-31T11:50:20;4.28;;;2.60;;
23175;SDS011;19910;42.652;23.332;2023-07-31T11:52:48;3.85;;;2.00;;
23175;SDS011;19910;42.652;23.332;2023-07-31T11:55:17;2.38;;;2.17;;
23175;SDS011;19910;42.652;23.332;2023-07-31T11:57:44;2.35;;;1.90;;
23175;SDS011;19910;42.652;23.332;2023-07-31T12:00:13;3.28;;;2.03;;
23175;SDS011;19910;42.652;23.332;2023-07-31T12:02:41;1.77;;;1.63;;
23175;SDS011;19910;42.652;23.332;2023-07-31T12:05:10;2.13;;;1.92;;
23175;SDS011;19910;42.652;23.332;2023-07-31T12:07:45;3.85;;;2.45;;
23175;SDS011;19910;42.652;23.332;2023-07-31T12:10:27;2.90;;;2.47;;
23175;SDS011;19910;42.652;23.332;2023-07-31T12:12:55;3.22;;;2.80;;
23175;SDS011;19910;42.652;23.332;2023-07-31T12:15:28;5.50;;;2.70;;
23175;SDS011;19910;42.652;23.332;2023-07-31T12:18:06;3.83;;;2.58;;
23175;SDS011;19910;42.652;23.332;2023-07-31T12:20:35;4.70;;;2.33;;
23175;SDS011;19910;42.652;23.332;2023-07-31T12:23:03;3.13;;;2.83;;
23175;SDS011;19910;42.652;23.332;2023-07-31T12:25:30;3.72;;;3.00;;
23175;SDS011;19910;42.652;23.332;2023-07-31T12:27:58;5.57;;;4.40;;
23175;SDS011;19910;42.652;23.332;2023-07-31T12:30:32;5.43;;;4.75;;
23175;SDS011;19910;42.652;23.332;2023-07-31T12:33:03;5.78;;;4.93;;
23175;SDS011;19910;42.652;23.332;2023-07-31T12:35:34;5.93;;;4.30;;
23175;SDS011;19910;42.652;23.332;2023-07-31T12:38:04;5.35;;;4.50;;
23175;SDS011;19910;42.652;23.332;2023-07-31T12:40:31;5.22;;;4.50;;
23175;SDS011;19910;42.652;23.332;2023-07-31T12:42:58;6.07;;;3.95;;
23175;SDS011;19910;42.652;23.332;2023-07-31T12:45:27;5.55;;;4.10;;
23175;SDS011;19910;42.652;23.332;2023-07-31T12:47:54;4.20;;;3.80;;
23175;SDS011;19910;42.652;23.332;2023-07-31T12:50:21;6.38;;;4.18;;
23175;SDS011;19910;42.652;23.332;2023-07-31T12:52:48;4.07;;;3.67;;
23175;SDS011;19910;42.652;23.332;2023-07-31T12:55:16;4.80;;;4.25;;
23175;SDS011;19910;42.652;23.332;2023-07-31T12:57:44;5.45;;;4.32;;
23175;SDS011;19910;42.652;23.332;2023-07-31T13:00:11;6.05;;;4.47;;
23175;SDS011;19910;42.652;23.332;2023-07-31T13:02:39;6.13;;;4.40;;
23175;SDS011;19910;42.652;23.332;2023-07-31T13:05:06;5.80;;;5.05;;
23175;SDS011;19910;42.652;23.332;2023-07-31T13:07:33;5.40;;;4.90;;
23175;SDS011;19910;42.652;23.332;2023-07-31T13:09:59;4.25;;;3.72;;
23175;SDS011;19910;42.652;23.332;2023-07-31T13:12:28;5.72;;;4.93;;
23175;SDS011;19910;42.652;23.332;2023-07-31T13:14:54;5.35;;;4.85;;
23175;SDS011;19910;42.652;23.332;2023-07-31T13:17:21;5.88;;;5.10;;
23175;SDS011;19910;42.652;23.332;2023-07-31T13:19:48;6.50;;;4.55;;
23175;SDS011;19910;42.652;23.332;2023-07-31T13:22:15;4.43;;;3.60;;
23175;SDS011;19910;42.652;23.332;2023-07-31T13:24:41;5.18;;;4.68;;
23175;SDS011;19910;42.652;23.332;2023-07-31T13:27:08;6.47;;;4.38;;
23175;SDS011;19910;42.652;23.332;2023-07-31T13:29:36;4.50;;;4.00;;
23175;SDS011;19910;42.652;23.332;2023-07-31T13:32:03;5.43;;;4.32;;
23175;SDS011;19910;42.652;23.332;2023-07-31T13:34:31;5.40;;;4.25;;
23175;SDS011;19910;42.652;23.332;2023-07-31T13:36:57;4.82;;;4.00;;
23175;SDS011;19910;42.652;23.332;2023-07-31T13:39:24;4.30;;;3.83;;
23175;SDS011;19910;42.652;23.332;2023-07-31T13:41:51;3.28;;;2.50;;
23175;SDS011;19910;42.652;23.332;2023-07-31T13:44:18;4.00;;;3.60;;
23175;SDS011;19910;42.652;23.332;2023-07-31T13:46:45;5.88;;;3.72;;
23175;SDS011;19910;42.652;23.332;2023-07-31T13:49:12;3.53;;;3.08;;
23175;SDS011;19910;42.652;23.332;2023-07-31T13:51:38;4.18;;;3.65;;
23175;SDS011;19910;42.652;23.332;2023-07-31T13:54:05;5.28;;;3.88;;
23175;SDS011;19910;42.652;23.332;2023-07-31T13:56:32;3.78;;;3.40;;
23175;SDS011;19910;42.652;23.332;2023-07-31T13:58:59;6.20;;;3.58;;
23175;SDS011;19910;42.652;23.332;2023-07-31T14:01:26;4.47;;;3.67;;
23175;SDS011;19910;42.652;23.332;2023-07-31T14:03:55;4.07;;;3.65;;
23175;SDS011;19910;42.652;23.332;2023-07-31T14:06:21;4.93;;;3.58;;
23175;SDS011;19910;42.652;23.332;2023-07-31T14:08:48;5.07;;;3.60;;
23175;SDS011;19910;42.652;23.332;2023-07-31T14:11:15;12.68;;;4.30;;
23175;SDS011;19910;42.652;23.332;2023-07-31T14:13:42;3.47;;;2.90;;
23175;SDS011;19910;42.652;23.332;2023-07-31T14:16:08;4.18;;;3.40;;
23175;SDS011;19910;42.652;23.332;2023-07-31T14:18:35;5.22;;;3.78;;
23175;SDS011;19910;42.652;23.332;2023-07-31T14:21:03;4.30;;;3.67;;
23175;SDS011;19910;42.652;23.332;2023-07-31T14:23:31;4.20;;;3.60;;
23175;SDS011;19910;42.652;23.332;2023-07-31T14:25:57;4.93;;;3.53;;
23175;SDS011;19910;42.652;23.332;2023-07-31T14:28:24;4.00;;;3.38;;
23175;SDS011;19910;42.652;23.332;2023-07-31T14:30:51;5.07;;;3.70;;
23175;SDS011;19910;42.652;23.332;2023-07-31T14:33:18;4.40;;;3.80;;